Time;durP1;ratioP1;P1;durP2;ratioP2;P2;SDS_P1;SDS_P2;PMS_P1;PMS_P2;Temp;Humidity;BMP_temperature;BMP_pressure;BME280_temperature;BME280_humidity;BME280_pressure;Samples;Min_cycle;Max_cycle;Signal;HPM_P1;HPM_P2
2020/12/09 00:01:38;;;;;;;12.50;9.30;;;2.90;99.90;;;;;;4991003;28;20382;-77
2020/12/09 00:04:04;;;;;;;13.17;9.60;;;4.50;99.90;;;;;;4991287;28;20379;-76
2020/12/09 00:06:39;;;;;;;12.60;9.20;;;2.80;99.90;;;;;;4991311;28;20886;-76
2020/12/09 00:09:12;;;;;;;11.97;8.60;;;4.80;99.90;;;;;;4990399;28;20421;-77
2020/12/09 00:11:39;;;;;;;11.25;8.00;;;2.90;99.90;;;;;;4991163;28;20436;-78
2020/12/09 00:14:05;;;;;;;11.93;9.27;;;2.70;99.90;;;;;;4991956;28;20434;-75
2020/12/09 00:16:31;;;;;;;12.30;8.60;;;2.90;99.90;;;;;;4991487;28;20387;-76
2020/12/09 00:18:57;;;;;;;10.90;8.43;;;2.80;99.90;;;;;;4990703;28;20418;-76
2020/12/09 00:21:24;;;;;;;12.37;9.20;;;4.90;99.90;;;;;;4991762;28;20527;-75
2020/12/09 00:23:51;;;;;;;12.82;8.88;;;3.30;99.90;;;;;;4990802;28;20426;-76
2020/12/09 00:26:18;;;;;;;12.32;8.88;;;3.60;99.90;;;;;;4991324;28;20793;-76
2020/12/09 00:28:44;;;;;;;9.98;8.30;;;2.80;99.90;;;;;;4990330;28;20410;-76
2020/12/09 00:31:10;;;;;;;11.13;8.75;;;2.70;99.90;;;;;;5000838;28;20489;-76
2020/12/09 00:33:35;;;;;;;11.50;8.70;;;2.80;99.90;;;;;;5010976;28;20404;-78
2020/12/09 00:36:01;;;;;;;11.40;8.10;;;3.40;99.90;;;;;;5010080;28;20381;-77
2020/12/09 00:38:26;;;;;;;13.83;9.73;;;3.10;99.90;;;;;;5010788;28;20424;-77
2020/12/09 00:40:52;;;;;;;15.40;10.00;;;5.20;99.90;;;;;;5010039;28;20472;-77
2020/12/09 00:43:18;;;;;;;13.90;9.98;;;2.70;99.90;;;;;;5011004;28;20530;-77
2020/12/09 00:45:43;;;;;;;14.30;10.98;;;2.60;99.90;;;;;;5010230;28;20468;-77
2020/12/09 00:48:09;;;;;;;23.20;12.05;;;4.40;99.90;;;;;;5011047;28;20403;-77
2020/12/09 00:50:35;;;;;;;18.20;11.80;;;2.50;99.90;;;;;;5010985;28;20412;-77
2020/12/09 00:53:00;;;;;;;13.87;10.53;;;2.50;99.90;;;;;;5009124;28;20392;-77
2020/12/09 00:55:26;;;;;;;18.07;11.13;;;4.50;99.90;;;;;;5011037;28;20393;-77
2020/12/09 00:57:52;;;;;;;14.77;11.57;;;4.10;99.90;;;;;;5009873;28;20388;-77
2020/12/09 01:00:17;;;;;;;14.95;10.57;;;2.70;99.90;;;;;;5010826;28;20417;-77
2020/12/09 01:02:43;;;;;;;14.32;9.82;;;5.10;99.90;;;;;;5010250;28;20400;-78
2020/12/09 01:05:09;;;;;;;13.47;10.03;;;2.50;99.90;;;;;;5011091;28;20467;-77
2020/12/09 01:07:36;;;;;;;13.63;10.25;;;4.60;99.90;;;;;;5009755;28;20385;-77
2020/12/09 01:10:07;;;;;;;13.60;9.90;;;4.80;99.90;;;;;;5010001;28;20411;-77
2020/12/09 01:12:34;;;;;;;10.77;9.10;;;2.50;99.90;;;;;;5010802;28;20380;-77
2020/12/09 01:14:59;;;;;;;11.50;8.52;;;3.10;99.90;;;;;;5010013;28;20527;-77
2020/12/09 01:17:25;;;;;;;10.82;9.00;;;4.30;99.90;;;;;;5011142;28;20385;-77
2020/12/09 01:19:50;;;;;;;12.15;8.75;;;4.90;99.90;;;;;;5009803;28;20419;-78
2020/12/09 01:22:16;;;;;;;11.13;8.68;;;2.70;99.90;;;;;;5010327;28;20384;-78
2020/12/09 01:24:42;;;;;;;10.73;8.37;;;2.90;99.90;;;;;;5009939;28;20403;-80
2020/12/09 01:27:07;;;;;;;10.80;8.67;;;4.20;99.90;;;;;;5010409;28;20428;-77
2020/12/09 01:29:33;;;;;;;10.23;8.17;;;4.90;99.90;;;;;;5012018;28;20399;-77
2020/12/09 01:32:02;;;;;;;12.45;9.20;;;3.90;99.90;;;;;;5013782;28;20447;-77
2020/12/09 01:34:29;;;;;;;12.02;9.10;;;3.10;99.90;;;;;;5014603;28;20396;-77
2020/12/09 01:36:55;;;;;;;12.18;9.00;;;4.30;99.90;;;;;;5013628;28;20393;-77
2020/12/09 01:39:21;;;;;;;13.20;8.93;;;2.70;99.90;;;;;;5014453;28;20419;-77
2020/12/09 01:41:47;;;;;;;9.63;8.10;;;4.90;99.90;;;;;;5013651;28;20547;-78
2020/12/09 01:44:13;;;;;;;11.40;8.38;;;3.90;99.90;;;;;;5014151;28;20385;-77
2020/12/09 01:46:39;;;;;;;11.00;8.23;;;3.10;99.90;;;;;;5014270;28;20389;-77
2020/12/09 01:49:05;;;;;;;12.15;8.40;;;4.40;99.90;;;;;;5013517;28;20400;-77
2020/12/09 01:51:30;;;;;;;11.90;9.15;;;3.90;99.90;;;;;;5013906;28;20377;-77
2020/12/09 01:54:00;;;;;;;9.70;7.63;;;4.50;99.90;;;;;;5013335;28;20455;-77
2020/12/09 01:56:27;;;;;;;10.77;8.17;;;3.20;99.90;;;;;;5013840;28;20880;-77
2020/12/09 01:58:55;;;;;;;11.73;9.23;;;3.00;99.90;;;;;;5012717;28;20456;-77
2020/12/09 02:01:21;;;;;;;10.73;8.40;;;4.80;99.90;;;;;;5013763;28;20738;-77
2020/12/09 02:03:47;;;;;;;12.23;9.40;;;4.50;99.90;;;;;;5013001;28;20443;-78
2020/12/09 02:06:17;;;;;;;11.07;8.27;;;4.50;99.90;;;;;;5013395;28;20389;-77
2020/12/09 02:08:44;;;;;;;12.68;8.85;;;3.20;99.90;;;;;;5013359;28;20385;-79
2020/12/09 02:11:10;;;;;;;8.82;7.93;;;4.60;99.90;;;;;;5013566;28;20389;-77
2020/12/09 02:13:49;;;;;;;11.32;8.30;;;4.10;99.90;;;;;;5013595;28;20490;-77
2020/12/09 02:16:17;;;;;;;13.55;9.77;;;3.60;99.90;;;;;;5013438;28;20407;-77
2020/12/09 02:18:44;;;;;;;13.60;9.87;;;3.60;99.90;;;;;;5013279;28;20494;-79
2020/12/09 02:21:09;;;;;;;12.70;9.35;;;4.10;99.90;;;;;;5012116;28;20446;-77
2020/12/09 02:23:35;;;;;;;11.50;8.87;;;3.90;99.90;;;;;;5013211;28;20511;-77
2020/12/09 02:26:01;;;;;;;10.65;8.60;;;5.40;99.90;;;;;;5011215;28;20385;-77
2020/12/09 02:28:27;;;;;;;11.50;9.00;;;4.00;99.90;;;;;;5013121;28;20397;-77
2020/12/09 02:30:52;;;;;;;12.00;8.60;;;2.70;99.90;;;;;;5002025;28;20438;-78
2020/12/09 02:33:18;;;;;;;11.47;8.97;;;5.80;99.90;;;;;;4993552;28;20414;-77
2020/12/09 02:35:44;;;;;;;12.73;9.27;;;6.80;99.90;;;;;;4993372;28;20442;-78
2020/12/09 02:38:10;;;;;;;12.70;8.95;;;3.00;99.90;;;;;;4993525;28;20921;-77
2020/12/09 02:40:37;;;;;;;11.30;8.75;;;3.30;99.90;;;;;;4990862;28;21040;-78
2020/12/09 02:43:03;;;;;;;12.57;9.45;;;3.20;99.90;;;;;;4992905;28;20403;-77
2020/12/09 02:45:28;;;;;;;12.90;9.73;;;5.10;99.90;;;;;;4993585;28;20413;-77
2020/12/09 02:47:54;;;;;;;10.43;8.33;;;2.70;99.90;;;;;;4992607;28;20497;-77
2020/12/09 02:50:20;;;;;;;11.82;9.77;;;5.10;99.90;;;;;;4993400;28;20737;-77
2020/12/09 02:52:45;;;;;;;12.35;8.63;;;4.00;99.90;;;;;;4992849;28;20466;-79
2020/12/09 02:55:11;;;;;;;12.68;9.38;;;2.90;99.90;;;;;;4993306;28;20441;-77
2020/12/09 02:57:37;;;;;;;12.80;8.90;;;4.50;99.90;;;;;;4993211;28;20921;-77
2020/12/09 03:00:05;;;;;;;10.70;8.70;;;2.40;99.90;;;;;;4992620;28;20419;-76
2020/12/09 03:02:31;;;;;;;12.35;10.32;;;4.40;99.90;;;;;;4992228;28;20398;-76
2020/12/09 03:04:56;;;;;;;11.67;9.67;;;2.90;99.90;;;;;;4992492;28;20383;-76
2020/12/09 03:07:22;;;;;;;13.20;9.93;;;2.70;99.90;;;;;;4993266;28;20389;-76
2020/12/09 03:09:48;;;;;;;11.23;8.67;;;4.00;99.90;;;;;;4992864;28;20382;-78
2020/12/09 03:12:13;;;;;;;13.35;8.60;;;3.40;99.90;;;;;;4993461;28;20929;-76
2020/12/09 03:14:39;;;;;;;12.23;9.20;;;4.70;99.90;;;;;;4993379;28;20914;-77
2020/12/09 03:17:04;;;;;;;12.70;9.55;;;2.70;99.90;;;;;;4990913;28;20398;-76
2020/12/09 03:19:30;;;;;;;12.88;10.48;;;2.70;99.90;;;;;;4992961;28;20421;-77
2020/12/09 03:21:56;;;;;;;13.73;9.77;;;4.20;99.90;;;;;;4991819;28;20385;-77
2020/12/09 03:24:21;;;;;;;13.17;10.30;;;2.60;99.90;;;;;;4992770;28;20858;-76
2020/12/09 03:26:47;;;;;;;13.83;10.30;;;2.80;99.90;;;;;;4991129;28;20922;-78
2020/12/09 03:29:13;;;;;;;12.63;10.00;;;3.70;99.90;;;;;;4991164;28;20395;-76
2020/12/09 03:31:38;;;;;;;12.68;10.45;;;4.80;99.90;;;;;;5007059;28;20757;-76
2020/12/09 03:34:04;;;;;;;12.80;9.60;;;4.60;99.90;;;;;;5011493;28;20404;-77
2020/12/09 03:36:29;;;;;;;12.85;9.93;;;3.50;99.90;;;;;;5010804;28;20404;-77
2020/12/09 03:38:55;;;;;;;11.93;9.82;;;4.70;99.90;;;;;;5011302;28;20413;-77
2020/12/09 03:41:21;;;;;;;12.07;9.45;;;4.90;99.90;;;;;;5012012;28;20389;-76
2020/12/09 03:43:46;;;;;;;12.70;9.85;;;2.60;99.90;;;;;;5012214;28;20381;-77
2020/12/09 03:46:12;;;;;;;13.80;10.00;;;3.00;99.90;;;;;;5011522;28;20389;-76
2020/12/09 03:48:37;;;;;;;13.57;9.83;;;3.00;99.90;;;;;;5011889;28;20393;-76
2020/12/09 03:51:03;;;;;;;11.10;8.80;;;4.80;99.90;;;;;;5010913;28;20452;-77
2020/12/09 03:53:32;;;;;;;14.37;8.90;;;4.80;99.90;;;;;;5010178;28;20431;-76
2020/12/09 03:55:58;;;;;;;11.50;9.38;;;3.50;99.90;;;;;;5011058;28;20854;-76
2020/12/09 03:58:23;;;;;;;12.95;10.30;;;2.70;99.90;;;;;;5011317;28;20466;-76
2020/12/09 04:00:49;;;;;;;14.07;10.30;;;4.90;99.90;;;;;;5011576;28;20764;-78
2020/12/09 04:03:15;;;;;;;10.93;9.43;;;5.10;99.90;;;;;;5011233;28;20424;-76
2020/12/09 04:05:40;;;;;;;13.63;9.23;;;4.70;99.90;;;;;;5011719;28;20389;-76
2020/12/09 04:08:06;;;;;;;11.63;9.47;;;4.70;99.90;;;;;;5011190;28;20876;-76
2020/12/09 04:10:32;;;;;;;12.95;9.80;;;3.00;99.90;;;;;;5010537;28;20443;-76
2020/12/09 04:12:57;;;;;;;14.65;11.40;;;3.80;99.90;;;;;;5010885;28;20389;-76
2020/12/09 04:15:23;;;;;;;15.65;11.98;;;3.20;99.90;;;;;;5011507;28;20387;-76
2020/12/09 04:17:48;;;;;;;16.05;11.85;;;3.40;99.90;;;;;;5011084;28;20428;-78
2020/12/09 04:20:14;;;;;;;19.35;13.00;;;4.00;99.90;;;;;;5010836;28;20547;-76
2020/12/09 04:22:40;;;;;;;19.42;12.68;;;3.40;99.90;;;;;;5011311;28;20389;-76
2020/12/09 04:25:06;;;;;;;17.90;12.13;;;4.00;99.90;;;;;;5010884;28;20470;-76
2020/12/09 04:27:31;;;;;;;18.80;13.02;;;2.80;99.90;;;;;;5011199;28;20388;-75
2020/12/09 04:29:57;;;;;;;20.98;14.32;;;2.90;99.90;;;;;;5009730;28;20934;-77
2020/12/09 04:32:23;;;;;;;18.67;13.13;;;2.70;99.90;;;;;;4991506;28;20414;-75
2020/12/09 04:34:50;;;;;;;20.50;13.10;;;4.50;99.90;;;;;;4991677;28;20378;-75
2020/12/09 04:37:19;;;;;;;21.25;13.05;;;2.90;99.90;;;;;;4989356;28;20420;-75
2020/12/09 04:39:45;;;;;;;21.20;14.63;;;3.10;99.90;;;;;;4991511;28;20502;-75
2020/12/09 04:42:17;;;;;;;21.52;13.57;;;4.60;99.90;;;;;;4990608;28;20382;-76
2020/12/09 04:44:44;;;;;;;20.20;13.75;;;3.90;99.90;;;;;;4991645;28;20398;-75
2020/12/09 04:47:23;;;;;;;18.92;12.70;;;4.80;99.90;;;;;;4990697;28;21231;-76
2020/12/09 04:49:49;;;;;;;21.05;12.32;;;2.80;99.90;;;;;;4991813;28;20394;-75
2020/12/09 04:52:31;;;;;;;21.40;13.07;;;4.80;99.90;;;;;;4990751;28;20764;-76
2020/12/09 04:55:04;;;;;;;18.63;12.50;;;4.50;99.90;;;;;;4990824;28;20390;-76
2020/12/09 04:57:45;;;;;;;18.30;11.90;;;2.90;99.90;;;;;;4991386;28;20494;-76
2020/12/09 05:00:12;;;;;;;18.60;12.88;;;2.70;99.90;;;;;;4988968;28;20433;-76
2020/12/09 05:02:42;;;;;;;18.88;13.70;;;2.50;99.90;;;;;;4991873;28;20382;-76
2020/12/09 05:05:10;;;;;;;19.85;11.90;;;2.70;99.90;;;;;;4990037;28;20708;-76
2020/12/09 05:07:37;;;;;;;17.38;12.20;;;4.80;99.90;;;;;;4990308;28;20398;-76
2020/12/09 05:10:06;;;;;;;19.00;11.90;;;3.50;99.90;;;;;;4989600;28;20482;-77
2020/12/09 05:12:41;;;;;;;17.00;11.45;;;2.90;99.90;;;;;;4991380;28;20400;-76
2020/12/09 05:15:18;;;;;;;16.33;11.30;;;2.50;99.90;;;;;;4990720;28;20441;-76
2020/12/09 05:18:04;;;;;;;16.40;11.60;;;4.70;99.90;;;;;;4990010;28;20421;-76
2020/12/09 05:20:34;;;;;;;17.37;11.67;;;3.90;99.90;;;;;;4990860;28;20483;-76
2020/12/09 05:23:00;;;;;;;17.48;10.40;;;3.10;99.90;;;;;;4990268;28;20726;-77
2020/12/09 05:25:27;;;;;;;18.25;11.30;;;4.60;99.90;;;;;;4990143;28;20879;-76
2020/12/09 05:27:54;;;;;;;18.70;11.00;;;4.10;99.90;;;;;;4991359;28;20420;-76
2020/12/09 05:30:55;;;;;;;13.50;10.27;;;3.00;99.90;;;;;;4994674;28;20425;-77
2020/12/09 05:33:29;;;;;;;15.30;10.60;;;4.60;99.90;;;;;;4988563;28;20429;-76
2020/12/09 05:36:02;;;;;;;15.02;10.93;;;4.40;99.90;;;;;;4990481;28;20637;-79
2020/12/09 05:38:29;;;;;;;13.77;10.00;;;2.70;99.90;;;;;;5007676;28;20452;-76
2020/12/09 05:40:56;;;;;;;14.77;10.98;;;4.40;99.90;;;;;;5010263;28;20409;-79
2020/12/09 05:43:22;;;;;;;13.88;10.27;;;5.10;99.90;;;;;;5009041;28;20393;-77
2020/12/09 05:45:48;;;;;;;15.43;10.95;;;3.00;99.90;;;;;;5004922;28;20386;-79
2020/12/09 05:48:23;;;;;;;13.00;9.70;;;3.50;99.90;;;;;;4991273;28;20513;-77
2020/12/09 05:50:53;;;;;;;12.90;9.82;;;3.60;99.90;;;;;;4991051;28;20482;-78
2020/12/09 05:53:23;;;;;;;14.45;9.90;;;3.90;99.90;;;;;;4989075;28;20399;-77
2020/12/09 05:55:54;;;;;;;14.75;10.73;;;2.70;99.90;;;;;;4991233;28;20385;-77
2020/12/09 05:58:27;;;;;;;14.50;9.77;;;3.00;99.90;;;;;;5006064;28;20480;-78
2020/12/09 06:01:11;;;;;;;14.10;9.55;;;5.00;99.90;;;;;;5010718;28;20393;-78
2020/12/09 06:03:39;;;;;;;16.35;10.50;;;5.30;99.90;;;;;;5010535;28;20389;-78
2020/12/09 06:06:18;;;;;;;16.02;10.40;;;3.70;99.90;;;;;;4993967;28;20430;-78
2020/12/09 06:08:47;;;;;;;16.58;11.02;;;2.90;99.90;;;;;;4991058;28;20937;-79
2020/12/09 06:11:15;;;;;;;16.13;11.52;;;3.70;99.90;;;;;;4990302;28;20406;-79
2020/12/09 06:13:41;;;;;;;15.43;10.80;;;3.20;99.90;;;;;;4991351;28;20788;-78
2020/12/09 06:16:08;;;;;;;15.75;10.25;;;3.30;99.90;;;;;;4994012;28;20466;-78
2020/12/09 06:18:36;;;;;;;13.85;10.18;;;3.00;99.90;;;;;;4995708;28;20855;-78
2020/12/09 06:21:03;;;;;;;14.93;10.45;;;2.90;99.90;;;;;;4993502;28;20394;-79
2020/12/09 06:23:29;;;;;;;12.60;9.00;;;5.70;99.90;;;;;;4994041;28;20414;-78
2020/12/09 06:25:58;;;;;;;10.95;8.77;;;4.40;99.90;;;;;;4994431;28;20436;-78
2020/12/09 06:28:25;;;;;;;9.90;8.00;;;3.00;99.90;;;;;;4993880;28;20399;-78
2020/12/09 06:30:53;;;;;;;12.35;8.05;;;2.90;99.90;;;;;;5002623;28;20450;-77
2020/12/09 06:33:32;;;;;;;10.35;7.80;;;3.50;99.90;;;;;;5013103;28;20385;-77
2020/12/09 06:36:27;;;;;;;11.00;8.05;;;2.90;99.90;;;;;;5013420;28;20377;-79
2020/12/09 06:39:07;;;;;;;13.93;9.50;;;3.10;99.90;;;;;;5013684;28;20426;-77
2020/12/09 06:41:38;;;;;;;12.05;9.02;;;4.10;99.90;;;;;;5013548;28;20450;-77
2020/12/09 06:44:11;;;;;;;12.77;9.63;;;3.00;99.90;;;;;;5013069;28;20398;-78
2020/12/09 06:46:44;;;;;;;13.93;9.93;;;3.20;99.90;;;;;;5012472;28;20393;-77
2020/12/09 06:49:27;;;;;;;12.95;9.70;;;3.20;99.90;;;;;;5012610;28;20396;-78
2020/12/09 06:51:57;;;;;;;13.52;9.98;;;4.40;99.90;;;;;;5012070;28;20808;-77
2020/12/09 06:54:39;;;;;;;13.98;9.32;;;3.00;99.90;;;;;;5012559;28;20483;-78
2020/12/09 06:57:24;;;;;;;11.10;8.70;;;3.50;99.90;;;;;;5012920;28;20424;-79
2020/12/09 07:00:17;;;;;;;13.80;8.60;;;3.10;99.90;;;;;;5013173;28;20432;-78
2020/12/09 07:02:46;;;;;;;12.53;9.00;;;3.40;99.90;;;;;;5013104;28;20385;-78
2020/12/09 07:05:16;;;;;;;14.75;9.45;;;2.70;99.90;;;;;;5012661;28;20475;-78
2020/12/09 07:07:44;;;;;;;13.00;9.23;;;3.00;99.90;;;;;;5013258;28;20381;-77
2020/12/09 07:10:17;;;;;;;15.52;9.45;;;3.10;99.90;;;;;;5012075;28;20873;-78
2020/12/09 07:12:42;;;;;;;12.20;9.10;;;2.90;99.90;;;;;;5013232;28;20468;-77
2020/12/09 07:15:08;;;;;;;12.25;9.20;;;4.70;99.90;;;;;;5012092;28;20381;-78
2020/12/09 07:17:34;;;;;;;10.93;8.70;;;2.90;99.90;;;;;;5013070;28;20424;-78
2020/12/09 07:20:00;;;;;;;11.50;8.50;;;3.40;99.90;;;;;;5012858;28;20413;-79
2020/12/09 07:22:27;;;;;;;12.05;8.68;;;2.90;99.90;;;;;;5012358;28;20737;-78
2020/12/09 07:24:54;;;;;;;12.20;8.87;;;4.90;99.90;;;;;;5013126;28;20403;-78
2020/12/09 07:27:23;;;;;;;12.95;9.35;;;4.20;99.90;;;;;;5011409;28;20396;-78
2020/12/09 07:29:52;;;;;;;13.85;9.40;;;4.20;99.90;;;;;;5013293;28;20397;-77
2020/12/09 07:32:19;;;;;;;14.23;9.98;;;5.10;99.90;;;;;;5010893;28;20396;-78
2020/12/09 07:34:52;;;;;;;13.43;8.82;;;3.70;99.90;;;;;;5012843;28;20381;-77
2020/12/09 07:37:20;;;;;;;11.67;9.37;;;4.30;99.90;;;;;;5010462;28;20401;-78
2020/12/09 07:39:49;;;;;;;13.03;8.77;;;3.80;99.90;;;;;;5011928;28;20447;-78
2020/12/09 07:42:17;;;;;;;9.75;7.68;;;3.30;99.90;;;;;;5010738;28;21351;-79
2020/12/09 07:44:44;;;;;;;10.48;7.97;;;6.10;99.90;;;;;;5012118;28;20471;-78
2020/12/09 07:47:11;;;;;;;10.23;8.50;;;5.10;99.90;;;;;;5011590;28;20385;-78
2020/12/09 07:49:49;;;;;;;9.85;7.57;;;4.60;99.90;;;;;;5012132;28;20476;-78
2020/12/09 07:52:25;;;;;;;8.93;7.22;;;4.90;99.90;;;;;;5011685;28;20425;-79
2020/12/09 07:54:57;;;;;;;9.20;7.95;;;3.40;99.90;;;;;;5011876;28;20415;-79
2020/12/09 07:57:28;;;;;;;11.20;7.85;;;3.20;99.90;;;;;;5011409;28;20438;-79
2020/12/09 07:59:55;;;;;;;11.00;8.50;;;3.30;99.90;;;;;;5010600;28;20489;-78
2020/12/09 08:02:22;;;;;;;9.93;7.82;;;5.00;99.90;;;;;;5011224;28;20394;-78
2020/12/09 08:05:05;;;;;;;11.57;8.30;;;3.20;99.90;;;;;;5011885;28;20393;-78
2020/12/09 08:07:31;;;;;;;11.73;7.90;;;3.80;99.90;;;;;;5011954;28;20400;-79
2020/12/09 08:10:11;;;;;;;10.50;7.97;;;5.70;99.90;;;;;;5011516;28;20746;-78
2020/12/09 08:12:37;;;;;;;12.30;8.48;;;3.30;99.90;;;;;;5011992;28;20393;-79
2020/12/09 08:15:06;;;;;;;10.77;8.50;;;3.40;99.90;;;;;;5011848;28;20480;-80
2020/12/09 08:17:33;;;;;;;12.90;8.38;;;3.60;99.90;;;;;;5010546;28;20429;-79
2020/12/09 08:20:06;;;;;;;10.97;8.57;;;3.10;99.90;;;;;;5011660;28;20467;-79
2020/12/09 08:22:49;;;;;;;9.73;7.73;;;3.20;99.90;;;;;;5011755;28;20459;-79
2020/12/09 08:25:14;;;;;;;10.52;7.85;;;4.10;99.90;;;;;;5009841;28;20749;-79
2020/12/09 08:27:45;;;;;;;10.87;8.27;;;4.40;99.90;;;;;;5011656;28;20388;-80
2020/12/09 08:30:16;;;;;;;10.68;7.90;;;3.30;99.90;;;;;;5010793;28;20488;-79
2020/12/09 08:33:03;;;;;;;11.15;7.65;;;3.20;99.90;;;;;;5011749;28;20380;-80
2020/12/09 08:35:50;;;;;;;8.32;7.15;;;3.30;99.90;;;;;;5010796;28;20388;-79
2020/12/09 08:38:31;;;;;;;14.70;9.40;;;5.30;99.90;;;;;;5009444;28;20400;-79
2020/12/09 08:41:01;;;;;;;10.65;8.40;;;3.30;99.90;;;;;;5012128;28;20458;-79
2020/12/09 08:43:32;;;;;;;9.73;7.78;;;3.50;99.90;;;;;;5010375;28;20603;-79
2020/12/09 08:45:58;;;;;;;9.73;8.07;;;4.10;99.90;;;;;;5011776;28;20381;-79
2020/12/09 08:48:24;;;;;;;11.47;8.20;;;3.10;99.90;;;;;;5010601;28;20419;-79
2020/12/09 08:50:51;;;;;;;10.40;7.78;;;3.60;99.90;;;;;;5011295;28;20391;-79
2020/12/09 08:53:19;;;;;;;11.80;8.40;;;3.90;99.90;;;;;;5010545;28;20408;-79
2020/12/09 08:55:46;;;;;;;10.68;8.15;;;3.30;99.90;;;;;;5010835;28;20412;-79
2020/12/09 08:58:15;;;;;;;10.20;7.30;;;3.30;99.90;;;;;;5010250;28;20416;-80
2020/12/09 09:00:43;;;;;;;11.35;8.73;;;3.30;99.90;;;;;;5009827;28;20424;-79
2020/12/09 09:03:16;;;;;;;11.90;8.38;;;3.20;99.90;;;;;;5010947;28;20388;-80
2020/12/09 09:05:45;;;;;;;13.05;9.57;;;3.20;99.90;;;;;;5011341;28;20411;-79
2020/12/09 09:08:12;;;;;;;17.23;10.27;;;3.40;99.90;;;;;;5010192;28;20881;-80
2020/12/09 09:10:39;;;;;;;13.20;9.82;;;3.60;99.90;;;;;;5011013;28;20423;-79
2020/12/09 09:13:05;;;;;;;14.52;10.80;;;3.30;99.90;;;;;;5010975;28;20888;-79
2020/12/09 09:15:33;;;;;;;16.58;10.32;;;3.30;99.90;;;;;;5010225;28;20380;-79
2020/12/09 09:18:00;;;;;;;14.85;10.25;;;3.30;99.90;;;;;;5011194;28;20734;-79
2020/12/09 09:20:26;;;;;;;12.55;9.50;;;3.40;99.90;;;;;;5010166;28;20408;-79
2020/12/09 09:22:53;;;;;;;14.52;10.05;;;3.40;99.90;;;;;;5009573;28;20397;-79
2020/12/09 09:25:20;;;;;;;13.13;9.73;;;3.70;99.90;;;;;;5010312;28;20377;-79
2020/12/09 09:27:50;;;;;;;13.13;9.25;;;3.70;99.90;;;;;;5010784;28;20523;-79
2020/12/09 09:30:17;;;;;;;13.40;9.35;;;3.60;99.90;;;;;;5006693;28;20729;-80
2020/12/09 09:32:43;;;;;;;13.57;9.68;;;3.80;99.90;;;;;;4991358;28;20402;-79
2020/12/09 09:35:09;;;;;;;13.13;8.88;;;3.60;99.90;;;;;;4991227;28;20490;-80
2020/12/09 09:37:34;;;;;;;11.47;9.03;;;5.20;99.90;;;;;;4990588;28;20517;-79
2020/12/09 09:40:00;;;;;;;12.80;9.33;;;3.40;99.90;;;;;;4991484;28;20437;-79
2020/12/09 09:42:27;;;;;;;10.82;7.97;;;4.70;99.90;;;;;;4990375;28;20473;-79
2020/12/09 09:44:52;;;;;;;14.60;9.43;;;3.40;99.90;;;;;;4990970;28;20383;-79
2020/12/09 09:47:18;;;;;;;10.25;8.07;;;3.30;99.90;;;;;;4990420;28;20733;-80
2020/12/09 09:49:44;;;;;;;14.67;8.93;;;4.10;99.90;;;;;;4991012;28;20713;-79
2020/12/09 09:52:10;;;;;;;11.35;8.10;;;4.70;99.90;;;;;;4993364;28;20881;-80
2020/12/09 09:54:36;;;;;;;10.45;8.20;;;3.30;99.90;;;;;;4994605;28;20444;-79
2020/12/09 09:57:03;;;;;;;10.17;7.60;;;3.30;99.90;;;;;;4993614;28;20386;-79
2020/12/09 09:59:29;;;;;;;10.55;8.02;;;3.70;99.90;;;;;;4993991;28;20985;-79
2020/12/09 10:01:56;;;;;;;12.18;9.00;;;3.10;99.90;;;;;;4994736;28;20394;-77
2020/12/09 10:04:23;;;;;;;9.98;7.65;;;3.70;99.90;;;;;;4993949;28;20395;-79
2020/12/09 10:06:51;;;;;;;11.13;7.97;;;3.40;99.90;;;;;;4994616;28;20827;-79
2020/12/09 10:09:18;;;;;;;12.70;9.15;;;3.10;99.90;;;;;;4994235;28;20863;-80
2020/12/09 10:11:44;;;;;;;12.15;8.65;;;3.60;99.90;;;;;;4994588;28;20391;-79
2020/12/09 10:14:14;;;;;;;11.18;8.35;;;4.40;99.90;;;;;;4994195;28;20383;-79
2020/12/09 10:16:43;;;;;;;12.70;8.50;;;3.90;99.90;;;;;;4994177;28;20401;-77
2020/12/09 10:19:09;;;;;;;12.35;9.07;;;3.30;99.90;;;;;;4994161;28;20962;-79
2020/12/09 10:21:35;;;;;;;15.98;10.32;;;3.40;99.90;;;;;;4993669;28;20481;-79
2020/12/09 10:24:02;;;;;;;17.60;9.77;;;3.80;99.90;;;;;;4994258;28;20417;-78
2020/12/09 10:26:34;;;;;;;15.23;9.70;;;3.60;99.90;;;;;;4993266;28;20739;-78
2020/12/09 10:29:01;;;;;;;15.35;9.73;;;3.70;99.90;;;;;;4993977;28;20401;-79
2020/12/09 10:31:39;;;;;;;13.68;9.68;;;3.60;99.90;;;;;;5006461;28;20450;-79
2020/12/09 10:34:07;;;;;;;12.70;8.80;;;3.80;99.90;;;;;;5013671;28;20861;-78
2020/12/09 10:36:34;;;;;;;11.80;8.77;;;5.30;99.90;;;;;;5011290;28;20392;-79
2020/12/09 10:38:59;;;;;;;19.25;10.07;;;3.70;99.90;;;;;;5013349;28;20425;-78
2020/12/09 10:41:25;;;;;;;11.93;8.33;;;3.60;99.90;;;;;;5013473;28;20400;-79
2020/12/09 10:43:52;;;;;;;13.95;9.70;;;3.80;99.90;;;;;;5012341;28;20472;-79
2020/12/09 10:46:20;;;;;;;13.35;9.48;;;3.50;99.90;;;;;;5012970;28;20860;-80
2020/12/09 10:48:46;;;;;;;12.75;9.70;;;4.30;99.90;;;;;;5013777;28;20381;-79
2020/12/09 10:51:12;;;;;;;11.43;8.20;;;4.20;99.90;;;;;;5013585;28;20465;-79
2020/12/09 10:53:38;;;;;;;12.40;8.80;;;4.10;99.90;;;;;;5012907;28;20472;-78
2020/12/09 10:56:04;;;;;;;13.25;8.80;;;4.20;99.90;;;;;;5013643;28;20397;-78
2020/12/09 10:58:30;;;;;;;13.43;8.38;;;4.50;99.90;;;;;;5010923;28;20392;-78
2020/12/09 11:00:56;;;;;;;11.73;8.50;;;4.90;99.90;;;;;;5013035;28;20419;-78
2020/12/09 11:03:23;;;;;;;12.80;8.57;;;5.40;99.90;;;;;;5011599;28;20464;-79
2020/12/09 11:05:50;;;;;;;13.15;8.40;;;4.60;99.90;;;;;;5013195;28;20393;-79
2020/12/09 11:08:15;;;;;;;13.55;8.57;;;5.10;99.90;;;;;;5012750;28;20753;-80
2020/12/09 11:10:42;;;;;;;13.63;9.13;;;3.30;99.90;;;;;;5013024;28;20377;-79
2020/12/09 11:13:07;;;;;;;13.15;8.65;;;3.60;99.90;;;;;;5011878;28;20412;-78
2020/12/09 11:15:34;;;;;;;12.43;7.90;;;4.00;99.90;;;;;;5012299;28;21214;-79
2020/12/09 11:18:00;;;;;;;12.35;7.90;;;5.20;99.90;;;;;;5011663;28;20436;-79
2020/12/09 11:20:26;;;;;;;12.70;8.43;;;3.60;99.90;;;;;;5012213;28;20884;-79
2020/12/09 11:22:52;;;;;;;12.17;8.07;;;3.80;99.90;;;;;;5012862;28;20396;-78
2020/12/09 11:25:18;;;;;;;13.73;8.55;;;3.50;99.90;;;;;;5012405;28;20734;-80
2020/12/09 11:27:44;;;;;;;12.18;8.30;;;6.60;99.90;;;;;;5011568;28;20401;-79
2020/12/09 11:30:10;;;;;;;10.53;8.43;;;3.70;99.90;;;;;;5010114;28;20410;-79
2020/12/09 11:32:36;;;;;;;13.13;8.77;;;3.40;99.90;;;;;;4994216;28;20410;-78
2020/12/09 11:35:02;;;;;;;12.93;8.93;;;3.60;99.90;;;;;;4993220;28;20444;-79
2020/12/09 11:37:31;;;;;;;13.80;9.98;;;4.40;99.90;;;;;;4991925;28;20383;-79
2020/12/09 11:39:56;;;;;;;12.05;8.90;;;3.40;99.90;;;;;;4992520;28;20886;-78
2020/12/09 11:42:22;;;;;;;10.30;8.10;;;5.90;99.90;;;;;;4991729;28;20414;-79
2020/12/09 11:44:47;;;;;;;12.03;8.50;;;5.90;99.90;;;;;;4992757;28;20426;-79
2020/12/09 11:47:13;;;;;;;12.20;8.30;;;3.30;99.90;;;;;;4992863;28;20421;-79
2020/12/09 11:49:39;;;;;;;11.10;7.65;;;6.70;99.90;;;;;;4991563;28;21213;-79
2020/12/09 11:52:04;;;;;;;11.85;8.43;;;3.70;99.90;;;;;;4991314;28;20487;-79
2020/12/09 11:54:30;;;;;;;9.73;7.10;;;3.80;99.90;;;;;;4991429;28;20387;-79
2020/12/09 11:56:59;;;;;;;9.63;7.32;;;3.90;99.90;;;;;;4992374;28;20843;-78
2020/12/09 11:59:25;;;;;;;11.77;8.73;;;4.30;99.90;;;;;;4991388;28;20422;-78
2020/12/09 12:01:52;;;;;;;12.10;8.07;;;4.00;99.90;;;;;;4992335;28;20482;-79
2020/12/09 12:04:17;;;;;;;11.80;8.05;;;5.80;99.90;;;;;;4991863;28;20481;-79
2020/12/09 12:06:43;;;;;;;10.50;8.60;;;4.50;99.90;;;;;;4991598;28;20490;-78
2020/12/09 12:09:09;;;;;;;12.93;8.63;;;4.70;99.90;;;;;;4992239;28;20482;-78
2020/12/09 12:11:34;;;;;;;14.10;9.15;;;6.70;99.90;;;;;;4991439;28;20735;-79
2020/12/09 12:14:00;;;;;;;10.35;8.40;;;4.10;99.90;;;;;;4991984;28;20382;-79
2020/12/09 12:16:26;;;;;;;10.35;7.70;;;3.80;99.90;;;;;;4991697;28;20387;-79
2020/12/09 12:18:53;;;;;;;9.87;7.63;;;5.00;99.90;;;;;;4991576;28;20394;-79
2020/12/09 12:21:21;;;;;;;12.07;8.63;;;3.60;99.90;;;;;;4991761;28;20856;-79
2020/12/09 12:23:47;;;;;;;10.98;7.70;;;3.80;99.90;;;;;;4990472;28;20569;-79
2020/12/09 12:26:17;;;;;;;10.13;8.10;;;3.70;99.90;;;;;;4992203;28;20391;-79
2020/12/09 12:28:44;;;;;;;11.18;9.20;;;3.70;99.90;;;;;;4991039;28;20474;-78
2020/12/09 12:31:11;;;;;;;10.70;8.30;;;3.60;99.90;;;;;;5002584;28;20393;-79
2020/12/09 12:33:37;;;;;;;10.38;8.40;;;5.80;99.90;;;;;;5010429;28;20927;-79
2020/12/09 12:36:04;;;;;;;9.10;7.75;;;4.30;99.90;;;;;;5011331;28;20392;-79
2020/12/09 12:38:31;;;;;;;12.15;9.27;;;3.20;99.90;;;;;;5010649;28;20399;-79
2020/12/09 12:40:56;;;;;;;12.90;9.20;;;4.60;99.90;;;;;;5010361;28;20420;-78
2020/12/09 12:43:22;;;;;;;13.68;9.20;;;5.10;99.90;;;;;;5010956;28;20393;-81
2020/12/09 12:45:48;;;;;;;11.95;8.88;;;3.80;99.90;;;;;;5011195;28;20385;-77
2020/12/09 12:48:13;;;;;;;12.85;8.95;;;3.60;99.90;;;;;;5011048;28;20773;-79
2020/12/09 12:50:40;;;;;;;11.27;7.70;;;5.80;99.90;;;;;;5009252;28;20396;-78